createdAt,value
2024-01-03T00:01:14.920Z,8.13
2024-01-03T00:03:17.952Z,8.07
2024-01-03T00:05:23.857Z,8.01
2024-01-03T00:07:25.823Z,8.12
2024-01-03T00:09:27.968Z,7.98
2024-01-03T00:11:32.160Z,7.98
2024-01-03T00:13:36.832Z,7.98
2024-01-03T00:15:38.861Z,7.98
2024-01-03T00:17:44.868Z,7.92
2024-01-03T00:19:54.600Z,7.95
2024-01-03T00:21:57.306Z,7.94
2024-01-03T00:24:06.569Z,8.01
2024-01-03T00:26:10.244Z,8.07
2024-01-03T00:28:12.872Z,8.05
2024-01-03T00:30:15.486Z,8.01
2024-01-03T00:32:21.989Z,8.08
2024-01-03T00:34:40.228Z,8.04
2024-01-03T00:36:42.196Z,8.02
2024-01-03T00:38:44.397Z,8.11
2024-01-03T00:40:56.138Z,8.07
2024-01-03T00:42:58.494Z,8.19
2024-01-03T00:45:00.319Z,8.08
2024-01-03T00:47:02.355Z,7.95
2024-01-03T00:49:04.264Z,7.99
2024-01-03T00:51:06.880Z,8.02
2024-01-03T00:53:08.850Z,8.02
2024-01-03T00:55:10.971Z,8.07
2024-01-03T00:57:13.376Z,8.10
2024-01-03T00:59:16.698Z,8.08
2024-01-03T01:01:18.538Z,8.13
2024-01-03T01:03:20.294Z,8.19
2024-01-03T01:05:22.440Z,8.16
2024-01-03T01:07:24.222Z,8.16
2024-01-03T01:09:26.360Z,8.14
2024-01-03T01:11:27.972Z,8.19
2024-01-03T01:13:29.593Z,8.29
2024-01-03T01:15:31.224Z,8.24
2024-01-03T01:17:32.956Z,8.08
2024-01-03T01:19:35.330Z,8.12
2024-01-03T01:21:41.162Z,8.08
2024-01-03T01:23:43.434Z,8.14
2024-01-03T01:25:45.656Z,8.08
2024-01-03T01:27:47.677Z,8.13
2024-01-03T01:29:49.436Z,8.08
2024-01-03T01:31:51.218Z,8.08
2024-01-03T01:33:53.513Z,8.06
2024-01-03T01:35:56.245Z,8.09
2024-01-03T01:37:57.947Z,7.91
2024-01-03T01:39:59.617Z,7.89
2024-01-03T01:42:01.258Z,7.91
2024-01-03T01:44:02.933Z,7.80
2024-01-03T01:46:05.725Z,7.82
2024-01-03T01:48:08.922Z,7.75
2024-01-03T01:50:11.755Z,7.79
2024-01-03T01:52:16.015Z,7.83
2024-01-03T01:54:18.726Z,7.75
2024-01-03T01:56:21.535Z,7.64
2024-01-03T01:58:24.131Z,7.65
2024-01-03T02:00:25.685Z,7.59
2024-01-03T02:02:27.594Z,7.55
2024-01-03T02:04:29.610Z,7.63
2024-01-03T02:06:32.156Z,7.62
2024-01-03T02:08:34.698Z,7.65
2024-01-03T02:10:36.404Z,7.73
2024-01-03T02:12:39.202Z,7.63
2024-01-03T02:14:42.392Z,7.65
2024-01-03T02:16:44.271Z,7.68
2024-01-03T02:18:47.944Z,7.73
2024-01-03T02:20:53.204Z,7.71
2024-01-03T02:22:55.680Z,7.75
2024-01-03T02:24:57.461Z,7.66
2024-01-03T02:26:59.114Z,7.70
2024-01-03T02:29:00.745Z,7.67
2024-01-03T02:31:02.540Z,7.60
2024-01-03T02:33:05.490Z,7.68
2024-01-03T02:35:07.529Z,7.65
2024-01-03T02:37:10.730Z,7.67
2024-01-03T02:39:12.342Z,7.70
2024-01-03T02:41:14.005Z,7.74
2024-01-03T02:43:15.639Z,7.75
2024-01-03T02:45:17.265Z,7.84
2024-01-03T02:47:18.937Z,7.76
2024-01-03T02:49:20.981Z,7.67
2024-01-03T02:51:23.805Z,7.64
2024-01-03T02:53:25.434Z,7.66
2024-01-03T02:55:27.074Z,7.62
2024-01-03T02:57:28.703Z,7.70
2024-01-03T02:59:30.564Z,7.81
2024-01-03T03:01:32.200Z,7.89
2024-01-03T03:03:34.381Z,7.89
2024-01-03T03:05:36.229Z,7.92
2024-01-03T03:07:38.879Z,7.86
2024-01-03T03:09:40.395Z,7.72
2024-01-03T03:11:43.078Z,7.71
2024-01-03T03:13:44.903Z,7.77
2024-01-03T03:15:47.986Z,7.77
2024-01-03T03:17:49.864Z,7.69
2024-01-03T03:19:51.817Z,7.69
2024-01-03T03:21:53.619Z,7.66
2024-01-03T03:23:55.804Z,7.65
2024-01-03T03:25:57.695Z,7.70
2024-01-03T03:27:59.976Z,7.69
2024-01-03T03:30:03.122Z,7.82
2024-01-03T03:32:06.518Z,7.75
2024-01-03T03:34:08.460Z,7.82
2024-01-03T03:36:14.280Z,7.78
2024-01-03T03:38:15.901Z,7.74
2024-01-03T03:40:17.601Z,7.75
2024-01-03T03:42:25.328Z,7.82
2024-01-03T03:44:27.544Z,7.93
2024-01-03T03:46:29.188Z,7.98
2024-01-03T03:48:31.007Z,7.89
2024-01-03T03:50:33.499Z,7.89
2024-01-03T03:52:36.427Z,7.89
2024-01-03T03:54:38.031Z,7.84
2024-01-03T03:56:39.734Z,7.86
2024-01-03T03:58:41.816Z,7.87
2024-01-03T04:00:43.755Z,7.95
2024-01-03T04:02:46.812Z,7.96
2024-01-03T04:04:48.439Z,7.98
2024-01-03T04:06:50.218Z,7.95
2024-01-03T04:08:51.951Z,7.97
2024-01-03T04:10:53.654Z,7.88
2024-01-03T04:12:56.374Z,7.85
2024-01-03T04:14:58.106Z,7.84
2024-01-03T04:16:59.961Z,7.89
2024-01-03T04:19:02.349Z,7.79
2024-01-03T04:21:06.598Z,7.76
2024-01-03T04:23:08.241Z,7.81
2024-01-03T04:25:10.391Z,7.84
2024-01-03T04:27:12.147Z,7.75
2024-01-03T04:29:13.971Z,7.76
2024-01-03T04:31:15.890Z,7.73
2024-01-03T04:33:17.656Z,7.71
2024-01-03T04:35:19.487Z,7.79
2024-01-03T04:37:21.188Z,7.78
2024-01-03T04:39:22.743Z,7.72
2024-01-03T04:41:24.469Z,7.70
2024-01-03T04:43:26.138Z,7.69
2024-01-03T04:45:27.925Z,7.74
2024-01-03T04:47:29.972Z,7.63
2024-01-03T04:49:31.747Z,7.69
2024-01-03T04:51:33.489Z,7.72
2024-01-03T04:53:35.123Z,7.73
2024-01-03T04:55:37.074Z,7.76
2024-01-03T04:57:39.431Z,7.74
2024-01-03T04:59:41.189Z,7.73
2024-01-03T05:01:44.597Z,7.72
2024-01-03T05:03:46.328Z,7.75
2024-01-03T05:05:48.002Z,7.82
2024-01-03T05:07:49.883Z,7.82
2024-01-03T05:09:51.883Z,7.79
2024-01-03T05:11:53.616Z,7.62
2024-01-03T05:13:55.794Z,7.62
2024-01-03T05:15:58.738Z,7.57
2024-01-03T05:18:01.314Z,7.53
2024-01-03T05:20:05.350Z,7.58
2024-01-03T05:22:06.967Z,7.57
2024-01-03T05:24:09.813Z,7.54
2024-01-03T05:26:14.954Z,7.58
2024-01-03T05:28:16.727Z,7.54
2024-01-03T05:30:18.458Z,7.50
2024-01-03T05:32:20.104Z,7.58
2024-01-03T05:34:21.999Z,7.57
2024-01-03T05:36:23.730Z,7.64
2024-01-03T05:38:25.579Z,7.58
2024-01-03T05:40:27.140Z,7.56
2024-01-03T05:42:28.766Z,7.56
2024-01-03T05:44:30.512Z,7.53
2024-01-03T05:46:32.565Z,7.57
2024-01-03T05:48:34.542Z,7.56
2024-01-03T05:50:36.388Z,7.50
2024-01-03T05:52:38.031Z,7.58
2024-01-03T05:54:39.585Z,7.66
2024-01-03T05:56:41.283Z,7.64
2024-01-03T05:58:43.349Z,7.70
2024-01-03T06:00:45.091Z,7.77
2024-01-03T06:02:46.668Z,7.87
2024-01-03T06:04:49.303Z,7.72
2024-01-03T06:06:51.488Z,7.80
2024-01-03T06:08:54.227Z,7.79
2024-01-03T06:10:56.294Z,7.68
2024-01-03T06:12:58.032Z,7.68
2024-01-03T06:14:59.956Z,7.64
2024-01-03T06:17:12.767Z,7.66
2024-01-03T06:19:33.278Z,7.71
2024-01-03T06:21:44.260Z,7.73
2024-01-03T06:23:46.263Z,7.63
2024-01-03T06:25:47.970Z,7.65
2024-01-03T06:27:50.261Z,7.62
2024-01-03T06:29:51.928Z,7.67
2024-01-03T06:31:53.635Z,7.64
2024-01-03T06:33:55.594Z,7.61
2024-01-03T06:36:00.308Z,7.64
2024-01-03T06:38:05.505Z,7.71
2024-01-03T06:40:07.979Z,7.71
2024-01-03T06:42:09.633Z,7.73
2024-01-03T06:44:11.509Z,7.69
2024-01-03T06:46:13.307Z,7.66
2024-01-03T06:48:15.614Z,7.59
2024-01-03T06:50:18.011Z,7.60
2024-01-03T06:52:20.097Z,7.67
2024-01-03T06:54:22.667Z,7.67
2024-01-03T06:56:26.185Z,7.65
2024-01-03T06:58:28.074Z,7.74
2024-01-03T07:00:29.665Z,7.86
2024-01-03T07:02:31.317Z,7.92
2024-01-03T07:04:32.986Z,7.92
2024-01-03T07:06:35.540Z,7.87
2024-01-03T07:08:37.471Z,7.84
2024-01-03T07:10:39.089Z,7.86
2024-01-03T07:12:40.769Z,7.85
2024-01-03T07:14:42.428Z,7.95
2024-01-03T07:16:44.279Z,7.95
2024-01-03T07:18:46.394Z,7.99
2024-01-03T07:20:48.238Z,7.99
2024-01-03T07:22:50.573Z,7.91
2024-01-03T07:24:52.184Z,7.89
2024-01-03T07:26:53.985Z,7.97
2024-01-03T07:28:55.627Z,7.96
2024-01-03T07:30:57.797Z,7.97
2024-01-03T07:32:59.749Z,8.00
2024-01-03T07:35:01.682Z,7.97
2024-01-03T07:37:03.402Z,7.98
2024-01-03T07:39:06.603Z,8.03
2024-01-03T07:41:08.615Z,8.02
2024-01-03T07:43:10.476Z,8.05
2024-01-03T07:45:12.167Z,8.08
2024-01-03T07:47:13.885Z,8.06
2024-01-03T07:49:17.344Z,8.15
2024-01-03T07:51:19.921Z,8.15
2024-01-03T07:53:21.881Z,8.20
2024-01-03T07:55:25.015Z,8.10
2024-01-03T07:57:27.225Z,8.03
2024-01-03T07:59:29.302Z,7.98
2024-01-03T08:01:32.025Z,7.99
2024-01-03T08:03:34.307Z,7.97
2024-01-03T08:05:36.391Z,7.96
2024-01-03T08:07:38.282Z,7.99
2024-01-03T08:09:40.199Z,8.02
2024-01-03T08:11:41.952Z,8.04
2024-01-03T08:13:43.630Z,8.03
2024-01-03T08:15:45.231Z,7.95
2024-01-03T08:17:47.228Z,8.03
2024-01-03T08:19:49.146Z,8.05
2024-01-03T08:21:51.209Z,8.04
2024-01-03T08:23:52.908Z,8.11
2024-01-03T08:25:54.666Z,8.09
2024-01-03T08:27:56.319Z,8.09
2024-01-03T08:29:58.415Z,8.12
2024-01-03T08:32:00.150Z,8.09
2024-01-03T08:34:02.051Z,7.95
2024-01-03T08:36:04.111Z,8.02
2024-01-03T08:38:05.813Z,8.08
2024-01-03T08:40:10.020Z,8.02
2024-01-03T08:42:11.666Z,7.89
2024-01-03T08:44:13.981Z,7.75
2024-01-03T08:46:15.835Z,7.83
2024-01-03T08:48:17.857Z,7.84
2024-01-03T08:50:19.763Z,7.85
2024-01-03T08:52:21.484Z,7.74
2024-01-03T08:54:25.805Z,7.71
2024-01-03T08:56:27.546Z,7.67
2024-01-03T08:58:29.231Z,7.76
2024-01-03T09:00:30.979Z,7.75
2024-01-03T09:02:32.667Z,7.77
2024-01-03T09:04:34.433Z,7.69
2024-01-03T09:06:37.361Z,7.72
2024-01-03T09:08:39.156Z,7.64
2024-01-03T09:10:41.186Z,7.75
2024-01-03T09:12:42.835Z,7.78
2024-01-03T09:14:44.931Z,7.79
2024-01-03T09:16:46.887Z,7.81
2024-01-03T09:18:48.919Z,7.94
2024-01-03T09:20:50.639Z,7.91
2024-01-03T09:22:53.669Z,7.94
2024-01-03T09:24:56.040Z,7.93
2024-01-03T09:26:58.910Z,7.99
2024-01-03T09:29:01.109Z,8.10
2024-01-03T09:31:04.003Z,8.18
2024-01-03T09:33:05.827Z,8.21
2024-01-03T09:35:07.891Z,8.26
2024-01-03T09:37:10.595Z,8.28
2024-01-03T09:39:13.636Z,8.36
2024-01-03T09:41:15.662Z,8.28
2024-01-03T09:43:17.697Z,8.31
2024-01-03T09:45:19.831Z,8.32
2024-01-03T09:47:21.586Z,8.40
2024-01-03T09:49:23.670Z,8.34
2024-01-03T09:51:25.775Z,8.42
2024-01-03T09:53:27.935Z,8.38
2024-01-03T09:55:30.519Z,8.40
2024-01-03T09:57:32.801Z,8.46
2024-01-03T09:59:36.798Z,8.53
2024-01-03T10:01:39.523Z,8.63
2024-01-03T10:03:41.479Z,8.70
2024-01-03T10:05:44.526Z,8.63
2024-01-03T10:07:46.709Z,8.66
2024-01-03T10:09:50.202Z,8.55
2024-01-03T10:11:55.299Z,8.47
2024-01-03T10:14:01.090Z,8.49
2024-01-03T10:16:05.355Z,8.48
2024-01-03T10:18:13.593Z,8.52
2024-01-03T10:20:28.084Z,8.57
2024-01-03T10:22:29.858Z,8.63
2024-01-03T10:24:32.749Z,8.69
2024-01-03T10:26:34.861Z,8.54
2024-01-03T10:28:37.073Z,8.61
2024-01-03T10:30:39.021Z,8.53
2024-01-03T10:32:40.720Z,8.56
2024-01-03T10:34:42.504Z,8.59
2024-01-03T10:36:46.624Z,8.62
2024-01-03T10:38:48.752Z,8.58
2024-01-03T10:40:51.680Z,8.68
2024-01-03T10:42:54.332Z,8.70
2024-01-03T10:44:55.956Z,8.81
2024-01-03T10:46:57.632Z,8.77
2024-01-03T10:48:59.538Z,8.76
2024-01-03T10:51:03.395Z,8.70
2024-01-03T10:53:09.453Z,8.76
2024-01-03T10:55:18.847Z,8.83
2024-01-03T10:57:24.852Z,8.90
2024-01-03T10:59:37.593Z,8.80
2024-01-03T11:01:48.466Z,8.80
2024-01-03T11:04:15.226Z,8.86
2024-01-03T11:06:24.053Z,8.83
2024-01-03T11:08:35.084Z,8.83
2024-01-03T11:10:54.958Z,8.87
2024-01-03T11:12:58.723Z,8.89
2024-01-03T11:15:37.579Z,8.97
2024-01-03T11:17:45.901Z,8.97
2024-01-03T11:19:48.163Z,8.94
2024-01-03T11:21:51.471Z,9.11
2024-01-03T11:23:53.335Z,8.98
2024-01-03T11:25:55.849Z,8.97
2024-01-03T11:28:38.027Z,9.07
2024-01-03T11:30:43.465Z,8.91
2024-01-03T11:32:47.737Z,9.02
2024-01-03T11:34:50.913Z,8.94
2024-01-03T11:36:53.357Z,8.98
2024-01-03T11:38:55.006Z,9.01
2024-01-03T11:40:56.814Z,8.97
2024-01-03T11:42:59.279Z,9.00
2024-01-03T11:45:15.702Z,8.95
2024-01-03T11:47:22.142Z,8.94
2024-01-03T11:49:23.944Z,8.90
2024-01-03T11:51:27.608Z,8.94
2024-01-03T11:53:30.478Z,8.97
2024-01-03T11:55:32.409Z,9.05
2024-01-03T11:57:38.509Z,9.13
2024-01-03T11:59:40.213Z,9.16
2024-01-03T12:01:59.160Z,9.07
2024-01-03T12:04:14.329Z,9.13
2024-01-03T12:06:21.091Z,9.34
2024-01-03T12:08:22.958Z,9.34
2024-01-03T12:10:26.089Z,9.29
2024-01-03T12:12:28.494Z,9.35
2024-01-03T12:14:31.808Z,9.24
2024-01-03T12:16:33.587Z,9.24
2024-01-03T12:18:48.718Z,9.20
2024-01-03T12:20:53.196Z,9.15
2024-01-03T12:22:54.918Z,9.09
2024-01-03T12:24:56.556Z,9.08
2024-01-03T12:26:58.497Z,9.02
2024-01-03T12:29:02.531Z,9.06
2024-01-03T12:31:17.781Z,9.03
2024-01-03T12:33:20.073Z,9.15
2024-01-03T12:35:22.092Z,9.16
2024-01-03T12:37:23.739Z,9.11
2024-01-03T12:39:25.416Z,9.23
2024-01-03T12:41:27.151Z,9.17
2024-01-03T12:43:28.821Z,9.12
2024-01-03T12:45:30.631Z,9.17
2024-01-03T12:47:32.501Z,9.15
2024-01-03T12:49:37.469Z,9.15
2024-01-03T12:51:44.228Z,9.12
2024-01-03T12:53:48.977Z,9.12
2024-01-03T12:55:50.676Z,9.19
2024-01-03T12:57:52.391Z,9.20
2024-01-03T12:59:54.153Z,9.28
2024-01-03T13:01:56.049Z,9.30
2024-01-03T13:03:57.814Z,9.43
2024-01-03T13:05:59.577Z,9.36
2024-01-03T13:08:01.187Z,9.15
2024-01-03T13:10:02.910Z,9.10
2024-01-03T13:12:04.868Z,9.05
2024-01-03T13:14:06.604Z,9.05
2024-01-03T13:16:08.848Z,8.99
2024-01-03T13:18:11.511Z,8.99
2024-01-03T13:20:19.681Z,8.99
2024-01-03T13:22:22.023Z,8.93
2024-01-03T13:24:24.259Z,8.83
2024-01-03T13:26:26.237Z,8.93
2024-01-03T13:28:28.542Z,8.98
2024-01-03T13:30:30.350Z,9.06
2024-01-03T13:32:32.037Z,9.00
2024-01-03T13:34:37.263Z,8.94
2024-01-03T13:36:40.186Z,8.99
2024-01-03T13:38:42.034Z,9.10
2024-01-03T13:40:44.292Z,9.01
2024-01-03T13:42:46.004Z,8.99
2024-01-03T13:44:48.104Z,8.87
2024-01-03T13:46:49.914Z,8.77
2024-01-03T13:48:51.776Z,8.79
2024-01-03T13:50:54.271Z,8.81
2024-01-03T13:52:56.844Z,8.80
2024-01-03T13:54:58.664Z,8.90
2024-01-03T13:57:00.314Z,8.76
2024-01-03T13:59:02.028Z,8.69
2024-01-03T14:01:03.986Z,8.65
2024-01-03T14:03:06.245Z,8.56
2024-01-03T14:05:08.647Z,8.56
2024-01-03T14:07:10.432Z,8.48
2024-01-03T14:09:12.058Z,8.41
2024-01-03T14:11:14.919Z,8.46
2024-01-03T14:13:17.227Z,8.38
2024-01-03T14:15:18.963Z,8.40
2024-01-03T14:17:22.476Z,8.34
2024-01-03T14:19:24.530Z,8.45
2024-01-03T14:21:27.023Z,8.56
2024-01-03T14:23:28.834Z,8.31
2024-01-03T14:25:30.754Z,8.30
2024-01-03T14:27:32.505Z,8.42
2024-01-03T14:29:34.266Z,8.61
2024-01-03T14:31:36.413Z,8.57
2024-01-03T14:33:38.877Z,8.43
2024-01-03T14:35:41.082Z,8.46
2024-01-03T14:37:43.464Z,8.35
2024-01-03T14:39:48.870Z,8.47
2024-01-03T14:41:51.317Z,8.28
2024-01-03T14:44:00.205Z,8.27
2024-01-03T14:46:03.296Z,8.29
2024-01-03T14:48:05.563Z,8.21
2024-01-03T14:50:07.864Z,8.13
2024-01-03T14:52:09.975Z,8.06
2024-01-03T14:54:11.676Z,7.98
2024-01-03T14:56:14.545Z,7.85
2024-01-03T14:58:16.685Z,7.87
2024-01-03T15:00:18.584Z,7.94
2024-01-03T15:02:20.364Z,7.93
2024-01-03T15:04:22.435Z,7.86
2024-01-03T15:06:24.430Z,7.84
2024-01-03T15:08:26.725Z,7.97
2024-01-03T15:10:28.460Z,8.04
2024-01-03T15:12:30.116Z,8.06
2024-01-03T15:14:34.303Z,8.11
2024-01-03T15:16:36.730Z,8.20
2024-01-03T15:18:39.198Z,8.16
2024-01-03T15:20:42.026Z,8.60
2024-01-03T15:22:44.852Z,9.07
2024-01-03T15:24:46.755Z,8.83
2024-01-03T15:26:48.956Z,8.43
2024-01-03T15:28:50.608Z,8.23
2024-01-03T15:30:52.344Z,8.16
2024-01-03T15:32:54.999Z,8.06
2024-01-03T15:34:56.877Z,7.90
2024-01-03T15:37:00.774Z,7.78
2024-01-03T15:39:02.837Z,7.83
2024-01-03T15:41:06.531Z,7.76
2024-01-03T15:43:08.559Z,7.59
2024-01-03T15:45:13.448Z,7.62
2024-01-03T15:47:16.146Z,7.74
2024-01-03T15:49:18.872Z,7.71
2024-01-03T15:51:21.109Z,7.67
2024-01-03T15:53:23.019Z,7.54
2024-01-03T15:55:24.907Z,7.56
2024-01-03T15:57:27.544Z,7.50
2024-01-03T15:59:29.154Z,7.55
2024-01-03T16:01:31.037Z,7.51
2024-01-03T16:03:32.748Z,7.46
2024-01-03T16:05:34.489Z,7.54
2024-01-03T16:07:36.178Z,7.46
2024-01-03T16:09:38.654Z,7.50
2024-01-03T16:11:40.478Z,7.49
2024-01-03T16:13:42.310Z,7.55
2024-01-03T16:15:44.212Z,7.50
2024-01-03T16:17:46.030Z,7.48
2024-01-03T16:19:47.945Z,7.38
2024-01-03T16:21:52.019Z,7.56
2024-01-03T16:23:54.916Z,7.48
2024-01-03T16:25:56.690Z,7.47
2024-01-03T16:28:00.925Z,7.54
2024-01-03T16:30:02.675Z,7.50
2024-01-03T16:32:06.808Z,7.47
2024-01-03T16:34:08.972Z,7.50
2024-01-03T16:36:10.891Z,7.58
2024-01-03T16:38:13.274Z,7.59
2024-01-03T16:40:15.121Z,7.58
2024-01-03T16:42:19.216Z,7.58
2024-01-03T16:44:21.015Z,7.57
2024-01-03T16:46:22.942Z,7.63
2024-01-03T16:48:25.162Z,7.69
2024-01-03T16:50:27.216Z,7.75
2024-01-03T16:52:29.511Z,7.71
2024-01-03T16:54:31.500Z,7.69
2024-01-03T16:56:33.460Z,7.78
2024-01-03T16:58:35.084Z,7.71
2024-01-03T17:00:36.799Z,7.69
2024-01-03T17:02:40.257Z,7.57
2024-01-03T17:04:42.914Z,7.57
2024-01-03T17:06:46.669Z,7.60
2024-01-03T17:08:50.565Z,7.54
2024-01-03T17:10:52.854Z,7.56
2024-01-03T17:12:56.296Z,7.51
2024-01-03T17:14:58.164Z,7.61
2024-01-03T17:17:02.926Z,7.66
2024-01-03T17:19:05.219Z,7.65
2024-01-03T17:21:14.611Z,7.69
2024-01-03T17:23:16.340Z,7.59
2024-01-03T17:25:18.571Z,7.59
2024-01-03T17:27:20.535Z,7.58
2024-01-03T17:29:22.632Z,7.61
2024-01-03T17:31:25.143Z,7.62
2024-01-03T17:33:27.000Z,7.69
2024-01-03T17:35:28.671Z,7.77
2024-01-03T17:37:31.405Z,7.71
2024-01-03T17:39:34.281Z,7.65
2024-01-03T17:41:40.444Z,7.64
2024-01-03T17:43:42.271Z,7.57
2024-01-03T17:45:44.089Z,7.56
2024-01-03T17:47:45.939Z,7.57
2024-01-03T17:49:48.007Z,7.52
2024-01-03T17:51:49.673Z,7.46
2024-01-03T17:53:55.402Z,7.59
2024-01-03T17:55:59.185Z,7.65
2024-01-03T17:58:01.017Z,7.60
2024-01-03T18:00:03.603Z,7.58
2024-01-03T18:02:09.511Z,7.51
2024-01-03T18:04:12.936Z,7.60
2024-01-03T18:06:15.258Z,7.69
2024-01-03T18:08:17.284Z,7.65
2024-01-03T18:10:19.029Z,7.50
2024-01-03T18:12:22.231Z,7.44
2024-01-03T18:14:24.063Z,7.38
2024-01-03T18:16:25.942Z,7.42
2024-01-03T18:18:27.827Z,7.43
2024-01-03T18:20:29.812Z,7.40
2024-01-03T18:22:33.342Z,7.40
2024-01-03T18:24:40.806Z,7.46
2024-01-03T18:26:42.799Z,7.37
2024-01-03T18:28:44.444Z,7.47
2024-01-03T18:30:46.700Z,7.48
2024-01-03T18:32:52.132Z,7.38
2024-01-03T18:34:55.661Z,7.32
2024-01-03T18:36:57.454Z,7.34
2024-01-03T18:38:59.540Z,7.37
2024-01-03T18:41:01.260Z,7.37
2024-01-03T18:43:04.019Z,7.41
2024-01-03T18:45:06.269Z,7.53
2024-01-03T18:47:07.891Z,7.53
2024-01-03T18:49:09.832Z,7.43
2024-01-03T18:51:15.323Z,7.50
2024-01-03T18:53:17.985Z,7.50
2024-01-03T18:55:20.765Z,7.50
2024-01-03T18:57:22.793Z,7.46
2024-01-03T18:59:24.631Z,7.14
2024-01-03T19:01:27.030Z,6.96
2024-01-03T19:03:28.673Z,6.70
2024-01-03T19:05:31.174Z,6.59
2024-01-03T19:07:33.473Z,6.69
2024-01-03T19:09:35.351Z,6.72
2024-01-03T19:11:37.060Z,6.62
2024-01-03T19:13:38.690Z,6.64
2024-01-03T19:15:40.938Z,6.66
2024-01-03T19:17:43.335Z,6.67
2024-01-03T19:19:45.260Z,6.60
2024-01-03T19:21:47.005Z,6.62
2024-01-03T19:23:48.642Z,6.73
2024-01-03T19:25:50.400Z,6.63
2024-01-03T19:27:51.991Z,6.71
2024-01-03T19:29:54.297Z,6.68
2024-01-03T19:31:56.956Z,6.70
2024-01-03T19:33:58.826Z,6.78
2024-01-03T19:36:00.926Z,6.72
2024-01-03T19:38:02.935Z,6.65
2024-01-03T19:40:05.039Z,6.68
2024-01-03T19:42:07.333Z,6.70
2024-01-03T19:44:10.919Z,6.69
2024-01-03T19:46:13.092Z,6.54
2024-01-03T19:48:15.119Z,6.52
2024-01-03T19:50:17.320Z,6.45
2024-01-03T19:52:19.380Z,6.49
2024-01-03T19:54:21.654Z,6.50
2024-01-03T19:56:23.609Z,6.49
2024-01-03T19:58:28.667Z,6.44
2024-01-03T20:00:30.285Z,6.53
2024-01-03T20:02:32.533Z,6.53
2024-01-03T20:04:34.872Z,6.49
2024-01-03T20:06:37.357Z,6.45
2024-01-03T20:08:39.025Z,6.45
2024-01-03T20:10:40.879Z,6.51
2024-01-03T20:12:42.525Z,6.57
2024-01-03T20:14:44.273Z,6.54
2024-01-03T20:16:47.629Z,6.53
2024-01-03T20:18:51.270Z,6.56
2024-01-03T20:20:53.433Z,6.63
2024-01-03T20:23:00.012Z,6.52
2024-01-03T20:25:02.321Z,6.51
2024-01-03T20:27:04.385Z,6.46
2024-01-03T20:29:08.650Z,6.51
2024-01-03T20:31:17.538Z,6.51
2024-01-03T20:33:19.511Z,6.54
2024-01-03T20:35:21.326Z,6.61
2024-01-03T20:37:23.156Z,6.67
2024-01-03T20:39:24.773Z,6.61
2024-01-03T20:41:26.445Z,6.53
2024-01-03T20:43:28.083Z,6.61
2024-01-03T20:45:30.148Z,6.66
2024-01-03T20:47:31.938Z,6.60
2024-01-03T20:49:33.803Z,6.57
2024-01-03T20:51:35.554Z,6.57
2024-01-03T20:53:37.167Z,6.64
2024-01-03T20:55:38.964Z,6.64
2024-01-03T20:57:42.509Z,6.63
2024-01-03T20:59:44.178Z,6.54
2024-01-03T21:01:47.487Z,6.58
2024-01-03T21:03:49.141Z,6.68
2024-01-03T21:05:51.235Z,6.61
2024-01-03T21:07:53.880Z,6.64
2024-01-03T21:09:55.409Z,6.68
2024-01-03T21:11:57.191Z,6.68
2024-01-03T21:14:06.695Z,6.61
2024-01-03T21:16:08.354Z,6.61
2024-01-03T21:18:10.721Z,6.49
2024-01-03T21:20:12.979Z,6.44
2024-01-03T21:22:14.708Z,6.46
2024-01-03T21:24:16.515Z,6.46
2024-01-03T21:26:20.241Z,6.46
2024-01-03T21:28:21.862Z,6.45
2024-01-03T21:30:23.717Z,6.53
2024-01-03T21:32:25.680Z,6.51
2024-01-03T21:34:27.458Z,6.62
2024-01-03T21:36:29.485Z,6.61
2024-01-03T21:38:31.585Z,6.67
2024-01-03T21:40:33.186Z,6.59
2024-01-03T21:42:35.363Z,6.57
2024-01-03T21:44:37.456Z,6.57
2024-01-03T21:46:39.332Z,6.51
2024-01-03T21:48:41.015Z,6.55
2024-01-03T21:50:43.497Z,6.56
2024-01-03T21:52:47.798Z,6.48
2024-01-03T21:54:49.600Z,6.46
2024-01-03T21:56:51.519Z,6.53
2024-01-03T21:58:53.225Z,6.55
2024-01-03T22:00:55.106Z,6.55
2024-01-03T22:02:56.817Z,6.58
2024-01-03T22:05:04.128Z,6.59
2024-01-03T22:07:06.012Z,6.56
2024-01-03T22:09:07.869Z,6.61
2024-01-03T22:11:09.607Z,6.59
2024-01-03T22:13:15.232Z,6.68
2024-01-03T22:15:18.718Z,6.64
2024-01-03T22:17:20.529Z,6.63
2024-01-03T22:19:22.608Z,6.78
2024-01-03T22:21:24.426Z,6.70
2024-01-03T22:23:26.193Z,6.82
2024-01-03T22:25:28.198Z,6.73
2024-01-03T22:27:30.115Z,6.76
2024-01-03T22:29:31.860Z,6.77
2024-01-03T22:31:34.199Z,6.74
2024-01-03T22:33:36.007Z,6.60
2024-01-03T22:35:37.935Z,6.66
2024-01-03T22:37:39.584Z,6.65
2024-01-03T22:39:41.269Z,6.72
2024-01-03T22:41:43.340Z,6.69
2024-01-03T22:43:45.142Z,6.69
2024-01-03T22:45:47.238Z,6.68
2024-01-03T22:47:52.901Z,6.72
2024-01-03T22:49:56.654Z,6.83
2024-01-03T22:51:58.409Z,6.71
2024-01-03T22:54:02.378Z,6.78
2024-01-03T22:56:04.764Z,6.76
2024-01-03T22:58:06.471Z,6.77
2024-01-03T23:00:13.563Z,6.74
2024-01-03T23:02:15.449Z,6.69
2024-01-03T23:04:18.008Z,6.78
2024-01-03T23:06:19.833Z,6.64
2024-01-03T23:08:22.067Z,6.67
2024-01-03T23:10:24.115Z,6.67
2024-01-03T23:12:25.777Z,6.73
2024-01-03T23:14:27.437Z,6.73
2024-01-03T23:16:29.009Z,6.68
2024-01-03T23:18:31.489Z,6.72
2024-01-03T23:20:33.522Z,6.80
2024-01-03T23:22:35.314Z,6.68
2024-01-03T23:24:36.994Z,6.62
2024-01-03T23:26:38.700Z,6.65
2024-01-03T23:28:41.327Z,6.56
2024-01-03T23:30:43.348Z,6.63
2024-01-03T23:32:45.103Z,6.59
2024-01-03T23:34:46.812Z,6.50
2024-01-03T23:36:48.580Z,6.59
2024-01-03T23:38:51.230Z,6.53
2024-01-03T23:40:53.005Z,6.50
2024-01-03T23:42:55.323Z,6.43
2024-01-03T23:44:57.156Z,6.42
2024-01-03T23:47:00.081Z,6.42
2024-01-03T23:49:01.839Z,6.44
2024-01-03T23:51:04.123Z,6.49
2024-01-03T23:53:06.614Z,6.47
2024-01-03T23:55:09.043Z,6.48
2024-01-03T23:57:10.901Z,6.43
2024-01-03T23:59:12.787Z,6.49
